sensor_id;sensor_type;location;lat;lon;timestamp;P1;durP1;ratioP1;P2;durP2;ratioP2
31974;SDS011;18500;43.618;1.474;2023-05-16T15:05:50;844.28;;;773.38;;
31974;SDS011;18500;43.618;1.474;2023-05-16T15:08:16;1259.80;;;999.90;;
31974;SDS011;18500;43.618;1.474;2023-05-16T15:10:42;1263.45;;;999.90;;
31974;SDS011;18500;43.618;1.474;2023-05-16T15:13:08;937.80;;;846.30;;
31974;SDS011;18500;43.618;1.474;2023-05-16T15:15:33;1190.90;;;999.90;;
31974;SDS011;18500;43.618;1.474;2023-05-16T15:18:02;992.35;;;889.30;;
31974;SDS011;18500;43.618;1.474;2023-05-16T15:20:28;1223.50;;;977.30;;
31974;SDS011;18500;43.618;1.474;2023-05-16T15:22:54;1228.05;;;999.90;;
31974;SDS011;18500;43.618;1.474;2023-05-16T15:25:19;1223.45;;;999.90;;
31974;SDS011;18500;43.618;1.474;2023-05-16T15:27:45;1245.38;;;999.90;;
31974;SDS011;18500;43.618;1.474;2023-05-16T15:30:11;1261.90;;;999.55;;
31974;SDS011;18500;43.618;1.474;2023-05-16T15:32:37;1239.55;;;984.20;;
31974;SDS011;18500;43.618;1.474;2023-05-16T15:35:03;1357.18;;;999.90;;
31974;SDS011;18500;43.618;1.474;2023-05-16T15:37:29;1133.82;;;985.92;;
31974;SDS011;18500;43.618;1.474;2023-05-16T15:39:55;1151.70;;;985.83;;
31974;SDS011;18500;43.618;1.474;2023-05-16T15:42:20;1562.38;;;999.90;;
31974;SDS011;18500;43.618;1.474;2023-05-16T15:44:46;1658.00;;;999.90;;
31974;SDS011;18500;43.618;1.474;2023-05-16T15:47:12;1120.65;;;975.70;;
31974;SDS011;18500;43.618;1.474;2023-05-16T15:49:37;1865.50;;;999.90;;
31974;SDS011;18500;43.618;1.474;2023-05-16T15:52:03;1405.15;;;999.90;;
31974;SDS011;18500;43.618;1.474;2023-05-16T15:54:30;1017.17;;;911.72;;
31974;SDS011;18500;43.618;1.474;2023-05-16T15:56:56;1180.03;;;966.65;;
31974;SDS011;18500;43.618;1.474;2023-05-16T15:59:21;1975.28;;;999.90;;
31974;SDS011;18500;43.618;1.474;2023-05-16T16:01:47;1066.65;;;921.20;;
31974;SDS011;18500;43.618;1.474;2023-05-16T16:04:13;984.20;;;884.28;;
31974;SDS011;18500;43.618;1.474;2023-05-16T16:06:38;1038.63;;;923.80;;
31974;SDS011;18500;43.618;1.474;2023-05-16T16:09:04;998.70;;;895.50;;
31974;SDS011;18500;43.618;1.474;2023-05-16T16:11:30;983.17;;;880.17;;
31974;SDS011;18500;43.618;1.474;2023-05-16T16:13:55;988.70;;;882.67;;
31974;SDS011;18500;43.618;1.474;2023-05-16T16:16:21;991.75;;;887.88;;
31974;SDS011;18500;43.618;1.474;2023-05-16T16:18:46;968.47;;;870.60;;
31974;SDS011;18500;43.618;1.474;2023-05-16T16:21:13;1135.72;;;964.83;;
31974;SDS011;18500;43.618;1.474;2023-05-16T16:23:39;1339.78;;;999.90;;
31974;SDS011;18500;43.618;1.474;2023-05-16T16:26:05;1783.18;;;999.90;;
31974;SDS011;18500;43.618;1.474;2023-05-16T16:28:31;1999.90;;;999.90;;
31974;SDS011;18500;43.618;1.474;2023-05-16T16:30:57;1918.95;;;999.90;;
31974;SDS011;18500;43.618;1.474;2023-05-16T16:33:23;1884.30;;;999.90;;
31974;SDS011;18500;43.618;1.474;2023-05-16T16:35:49;1999.90;;;999.90;;
31974;SDS011;18500;43.618;1.474;2023-05-16T16:38:15;1999.90;;;999.90;;
31974;SDS011;18500;43.618;1.474;2023-05-16T16:40:42;1999.90;;;999.90;;
31974;SDS011;18500;43.618;1.474;2023-05-16T16:43:07;1999.90;;;999.90;;
31974;SDS011;18500;43.618;1.474;2023-05-16T16:45:33;1999.90;;;999.90;;
31974;SDS011;18500;43.618;1.474;2023-05-16T16:47:59;1443.10;;;997.45;;
31974;SDS011;18500;43.618;1.474;2023-05-16T16:50:25;1873.60;;;999.90;;
31974;SDS011;18500;43.618;1.474;2023-05-16T16:52:51;1999.90;;;999.90;;
31974;SDS011;18500;43.618;1.474;2023-05-16T16:55:18;1543.95;;;998.15;;
31974;SDS011;18500;43.618;1.474;2023-05-16T16:57:43;1999.90;;;999.90;;
31974;SDS011;18500;43.618;1.474;2023-05-16T17:00:09;1594.60;;;995.67;;
31974;SDS011;18500;43.618;1.474;2023-05-16T17:02:35;1549.93;;;999.90;;
31974;SDS011;18500;43.618;1.474;2023-05-16T17:05:01;1999.90;;;999.90;;
31974;SDS011;18500;43.618;1.474;2023-05-16T17:07:29;1999.90;;;999.90;;
31974;SDS011;18500;43.618;1.474;2023-05-16T17:09:54;1999.90;;;999.90;;
31974;SDS011;18500;43.618;1.474;2023-05-16T17:12:20;1999.90;;;999.90;;
31974;SDS011;18500;43.618;1.474;2023-05-16T17:14:49;1999.90;;;999.90;;
31974;SDS011;18500;43.618;1.474;2023-05-16T17:17:15;1297.60;;;999.90;;
31974;SDS011;18500;43.618;1.474;2023-05-16T17:19:43;1999.90;;;999.90;;
31974;SDS011;18500;43.618;1.474;2023-05-16T17:22:10;1421.30;;;999.90;;
31974;SDS011;18500;43.618;1.474;2023-05-16T17:24:35;1904.80;;;999.90;;
31974;SDS011;18500;43.618;1.474;2023-05-16T17:27:01;1269.57;;;999.90;;
31974;SDS011;18500;43.618;1.474;2023-05-16T17:29:27;1194.65;;;993.83;;
31974;SDS011;18500;43.618;1.474;2023-05-16T17:31:54;1363.95;;;999.90;;
31974;SDS011;18500;43.618;1.474;2023-05-16T17:34:20;1197.15;;;997.60;;
31974;SDS011;18500;43.618;1.474;2023-05-16T17:36:45;1231.53;;;995.63;;
31974;SDS011;18500;43.618;1.474;2023-05-16T17:39:11;1789.72;;;999.90;;
31974;SDS011;18500;43.618;1.474;2023-05-16T17:41:37;1354.97;;;999.90;;
31974;SDS011;18500;43.618;1.474;2023-05-16T17:44:02;1395.35;;;999.90;;
31974;SDS011;18500;43.618;1.474;2023-05-16T17:46:32;1084.22;;;967.42;;
31974;SDS011;18500;43.618;1.474;2023-05-16T17:48:58;1802.20;;;999.90;;
31974;SDS011;18500;43.618;1.474;2023-05-16T17:51:24;1644.57;;;999.90;;
31974;SDS011;18500;43.618;1.474;2023-05-16T17:53:50;1476.53;;;999.90;;
31974;SDS011;18500;43.618;1.474;2023-05-16T17:56:16;1670.70;;;999.90;;
31974;SDS011;18500;43.618;1.474;2023-05-16T17:58:43;1115.32;;;983.17;;
31974;SDS011;18500;43.618;1.474;2023-05-16T18:01:09;1471.57;;;999.90;;
31974;SDS011;18500;43.618;1.474;2023-05-16T18:03:37;1643.53;;;999.90;;
31974;SDS011;18500;43.618;1.474;2023-05-16T18:06:03;1822.03;;;999.90;;
31974;SDS011;18500;43.618;1.474;2023-05-16T18:08:29;1999.90;;;999.90;;
31974;SDS011;18500;43.618;1.474;2023-05-16T18:10:55;1883.18;;;999.90;;
31974;SDS011;18500;43.618;1.474;2023-05-16T18:13:21;1874.53;;;999.90;;
31974;SDS011;18500;43.618;1.474;2023-05-16T18:15:47;1807.85;;;999.90;;
31974;SDS011;18500;43.618;1.474;2023-05-16T18:18:14;1796.03;;;999.90;;
31974;SDS011;18500;43.618;1.474;2023-05-16T18:20:41;1945.28;;;999.90;;
31974;SDS011;18500;43.618;1.474;2023-05-16T18:23:07;1968.03;;;999.90;;
31974;SDS011;18500;43.618;1.474;2023-05-16T18:25:32;1803.60;;;999.90;;
31974;SDS011;18500;43.618;1.474;2023-05-16T18:27:58;1539.15;;;999.90;;
31974;SDS011;18500;43.618;1.474;2023-05-16T18:30:24;1044.70;;;926.53;;
31974;SDS011;18500;43.618;1.474;2023-05-16T18:32:50;1832.97;;;999.90;;
31974;SDS011;18500;43.618;1.474;2023-05-16T18:35:16;1683.10;;;999.90;;
31974;SDS011;18500;43.618;1.474;2023-05-16T18:37:41;1953.97;;;999.90;;
31974;SDS011;18500;43.618;1.474;2023-05-16T18:40:07;1566.28;;;999.90;;
31974;SDS011;18500;43.618;1.474;2023-05-16T18:42:33;1933.13;;;999.90;;
31974;SDS011;18500;43.618;1.474;2023-05-16T18:44:59;1753.57;;;999.90;;
31974;SDS011;18500;43.618;1.474;2023-05-16T18:47:24;1342.55;;;998.53;;
31974;SDS011;18500;43.618;1.474;2023-05-16T18:49:50;1200.30;;;980.60;;
31974;SDS011;18500;43.618;1.474;2023-05-16T18:52:16;1836.18;;;999.90;;
31974;SDS011;18500;43.618;1.474;2023-05-16T18:54:42;1585.80;;;999.90;;
31974;SDS011;18500;43.618;1.474;2023-05-16T18:57:07;1727.07;;;999.90;;
31974;SDS011;18500;43.618;1.474;2023-05-16T18:59:33;1846.32;;;999.90;;
31974;SDS011;18500;43.618;1.474;2023-05-16T19:02:00;1584.65;;;999.90;;
31974;SDS011;18500;43.618;1.474;2023-05-16T19:04:25;1191.95;;;958.13;;
31974;SDS011;18500;43.618;1.474;2023-05-16T19:06:51;1028.05;;;919.28;;
31974;SDS011;18500;43.618;1.474;2023-05-16T19:09:20;982.47;;;882.95;;
31974;SDS011;18500;43.618;1.474;2023-05-16T19:11:46;1089.53;;;962.58;;
31974;SDS011;18500;43.618;1.474;2023-05-16T19:14:12;1435.15;;;999.90;;
31974;SDS011;18500;43.618;1.474;2023-05-16T19:16:38;1414.32;;;999.90;;
31974;SDS011;18500;43.618;1.474;2023-05-16T19:19:04;993.20;;;887.08;;
31974;SDS011;18500;43.618;1.474;2023-05-16T19:21:31;1520.10;;;999.90;;
31974;SDS011;18500;43.618;1.474;2023-05-16T19:23:57;1711.65;;;999.90;;
31974;SDS011;18500;43.618;1.474;2023-05-16T19:26:23;1818.05;;;999.90;;
31974;SDS011;18500;43.618;1.474;2023-05-16T19:28:49;1843.57;;;999.90;;
31974;SDS011;18500;43.618;1.474;2023-05-16T19:31:15;1657.32;;;999.90;;
31974;SDS011;18500;43.618;1.474;2023-05-16T19:33:41;1738.22;;;999.90;;
31974;SDS011;18500;43.618;1.474;2023-05-16T19:36:07;1750.50;;;999.90;;
31974;SDS011;18500;43.618;1.474;2023-05-16T19:38:33;1316.85;;;999.90;;
31974;SDS011;18500;43.618;1.474;2023-05-16T19:40:59;991.80;;;885.10;;
31974;SDS011;18500;43.618;1.474;2023-05-16T19:43:25;1014.90;;;910.45;;
31974;SDS011;18500;43.618;1.474;2023-05-16T19:45:50;1173.60;;;999.90;;
31974;SDS011;18500;43.618;1.474;2023-05-16T19:48:16;1717.88;;;999.90;;
31974;SDS011;18500;43.618;1.474;2023-05-16T19:50:42;1476.72;;;999.90;;
31974;SDS011;18500;43.618;1.474;2023-05-16T19:53:08;1292.55;;;999.90;;
31974;SDS011;18500;43.618;1.474;2023-05-16T19:55:34;1290.15;;;999.90;;
31974;SDS011;18500;43.618;1.474;2023-05-16T19:58:01;1679.78;;;999.90;;
31974;SDS011;18500;43.618;1.474;2023-05-16T20:00:27;1546.28;;;999.90;;
31974;SDS011;18500;43.618;1.474;2023-05-16T20:02:53;998.90;;;900.80;;
31974;SDS011;18500;43.618;1.474;2023-05-16T20:05:18;1031.18;;;922.22;;
31974;SDS011;18500;43.618;1.474;2023-05-16T20:07:47;1472.03;;;999.90;;
31974;SDS011;18500;43.618;1.474;2023-05-16T20:10:13;942.25;;;850.33;;
31974;SDS011;18500;43.618;1.474;2023-05-16T20:12:40;1021.00;;;915.50;;
31974;SDS011;18500;43.618;1.474;2023-05-16T20:15:06;856.00;;;778.13;;
31974;SDS011;18500;43.618;1.474;2023-05-16T20:17:34;955.08;;;865.83;;
31974;SDS011;18500;43.618;1.474;2023-05-16T20:20:00;990.90;;;894.15;;
31974;SDS011;18500;43.618;1.474;2023-05-16T20:22:27;1159.63;;;964.35;;
31974;SDS011;18500;43.618;1.474;2023-05-16T20:24:52;1025.95;;;917.08;;
31974;SDS011;18500;43.618;1.474;2023-05-16T20:27:18;882.45;;;799.78;;
31974;SDS011;18500;43.618;1.474;2023-05-16T20:29:45;901.50;;;809.45;;
31974;SDS011;18500;43.618;1.474;2023-05-16T20:32:13;841.63;;;768.58;;
31974;SDS011;18500;43.618;1.474;2023-05-16T20:34:39;865.58;;;785.88;;
31974;SDS011;18500;43.618;1.474;2023-05-16T20:37:05;872.17;;;796.15;;
31974;SDS011;18500;43.618;1.474;2023-05-16T20:39:31;986.33;;;882.08;;
31974;SDS011;18500;43.618;1.474;2023-05-16T20:41:57;1310.32;;;999.90;;
31974;SDS011;18500;43.618;1.474;2023-05-16T20:44:23;930.75;;;837.13;;
31974;SDS011;18500;43.618;1.474;2023-05-16T20:46:48;890.47;;;807.50;;
31974;SDS011;18500;43.618;1.474;2023-05-16T20:49:14;1026.38;;;916.53;;
31974;SDS011;18500;43.618;1.474;2023-05-16T20:51:40;1379.38;;;999.90;;
31974;SDS011;18500;43.618;1.474;2023-05-16T20:54:05;1007.40;;;907.20;;
31974;SDS011;18500;43.618;1.474;2023-05-16T20:56:31;985.25;;;883.17;;
31974;SDS011;18500;43.618;1.474;2023-05-16T20:58:57;1254.30;;;999.90;;
31974;SDS011;18500;43.618;1.474;2023-05-16T21:01:22;1448.93;;;999.90;;
31974;SDS011;18500;43.618;1.474;2023-05-16T21:03:48;1426.20;;;999.90;;
31974;SDS011;18500;43.618;1.474;2023-05-16T21:06:14;1120.97;;;983.35;;
31974;SDS011;18500;43.618;1.474;2023-05-16T21:08:40;1628.47;;;999.90;;
31974;SDS011;18500;43.618;1.474;2023-05-16T21:11:05;1192.63;;;999.90;;
31974;SDS011;18500;43.618;1.474;2023-05-16T21:13:31;1534.53;;;999.90;;
31974;SDS011;18500;43.618;1.474;2023-05-16T21:15:56;1524.60;;;999.90;;
31974;SDS011;18500;43.618;1.474;2023-05-16T21:18:22;1468.05;;;999.90;;
31974;SDS011;18500;43.618;1.474;2023-05-16T21:20:47;1673.80;;;999.90;;
31974;SDS011;18500;43.618;1.474;2023-05-16T21:23:13;1630.47;;;999.90;;
31974;SDS011;18500;43.618;1.474;2023-05-16T21:25:39;1683.50;;;999.90;;
31974;SDS011;18500;43.618;1.474;2023-05-16T21:28:05;1495.25;;;999.90;;
31974;SDS011;18500;43.618;1.474;2023-05-16T21:30:31;1394.82;;;999.90;;
31974;SDS011;18500;43.618;1.474;2023-05-16T21:32:56;1446.50;;;999.90;;
31974;SDS011;18500;43.618;1.474;2023-05-16T21:35:22;1513.32;;;999.90;;
31974;SDS011;18500;43.618;1.474;2023-05-16T21:37:48;1648.65;;;999.90;;
31974;SDS011;18500;43.618;1.474;2023-05-16T21:40:13;1661.28;;;999.90;;
31974;SDS011;18500;43.618;1.474;2023-05-16T21:42:43;1564.88;;;999.90;;
31974;SDS011;18500;43.618;1.474;2023-05-16T21:45:10;1428.07;;;999.90;;
31974;SDS011;18500;43.618;1.474;2023-05-16T21:47:43;1359.75;;;999.90;;
31974;SDS011;18500;43.618;1.474;2023-05-16T21:50:10;1654.35;;;999.90;;
31974;SDS011;18500;43.618;1.474;2023-05-16T21:52:36;1372.03;;;999.90;;
31974;SDS011;18500;43.618;1.474;2023-05-16T21:55:03;1454.63;;;999.90;;
31974;SDS011;18500;43.618;1.474;2023-05-16T21:57:29;1490.50;;;999.90;;
31974;SDS011;18500;43.618;1.474;2023-05-16T21:59:55;1662.97;;;999.90;;
31974;SDS011;18500;43.618;1.474;2023-05-16T22:02:21;1704.32;;;999.90;;
31974;SDS011;18500;43.618;1.474;2023-05-16T22:04:50;1669.65;;;999.90;;
31974;SDS011;18500;43.618;1.474;2023-05-16T22:07:17;1566.00;;;999.90;;
31974;SDS011;18500;43.618;1.474;2023-05-16T22:09:43;1582.30;;;999.90;;
